FW2516 Weather Reports


Display with metric or nautical units.
time (UTC)temp
F
wind
direction
speed
MPH
gust
MPH
rain 1hr
in
rain 24hr
in
rain mn
in
humidity
%
barometer
mb
20240303114532 48 84 0.0 0.0 0.00 0.00 0.00 51 1021.7
20240303113027 48 84 0.0 0.0 0.00 0.00 0.00 51 1021.6
20240303111527 48 84 0.0 0.0 0.00 0.00 0.00 51 1021.7
20240303110034 47 83 0.0 0.0 0.00 0.00 0.00 51 1021.4
20240303104536 47 83 0.0 0.0 0.00 0.00 0.00 51 1021.2
20240303103025 47 83 0.0 0.0 0.00 0.00 0.00 51 1021.0
20240303101541 47 83 0.0 0.0 0.00 0.00 0.00 51 1020.8
20240303100024 47 83 0.0 0.0 0.00 0.00 0.00 51 1020.6
20240303094522 46 83 0.0 0.0 0.00 0.00 0.00 51 1020.6
20240303093025 46 83 0.0 0.0 0.00 0.00 0.00 51 1020.6
20240303091533 46 83 0.0 0.0 0.00 0.00 0.00 51 1020.5
20240303090022 46 85 0.0 0.0 0.00 0.00 0.00 51 1020.5
20240303084520 46 86 0.0 0.0 0.00 0.00 0.00 50 1020.5
20240303083020 46 86 0.0 0.0 0.00 0.00 0.00 51 1020.6
20240303081520 46 87 0.0 1.0 0.00 0.00 0.00 50 1020.5
20240303080022 45 86 0.0 2.0 0.00 0.01 0.00 50 1020.6
20240303074529 46 90 0.0 3.0 0.00 0.01 0.00 50 1020.6
20240303073016 46 90 0.0 1.0 0.00 0.01 0.00 50 1020.6
20240303071515 46 90 0.0 1.0 0.00 0.01 0.00 50 1020.8
20240303070015 46 90 0.0 0.0 0.00 0.01 0.00 50 1020.8
20240303064516 46 91 0.0 0.0 0.00 0.01 0.00 50 1020.9
20240303063016 46 91 0.0 0.0 0.00 0.01 0.00 49 1020.9
20240303061513 46 91 0.0 0.0 0.00 0.01 0.00 49 1021.0
20240303060010 46 90 0.0 0.0 0.00 0.01 0.00 49 1021.0
20240303054512 47 91 0.0 0.0 0.00 0.01 0.00 49 1020.9
20240303053008 47 91 0.0 0.0 0.00 0.01 0.00 49 1020.9
20240303051507 47 154 0.0 0.0 0.00 0.01 0.00 48 1021.0
20240303050005 47 154 0.0 1.0 0.00 0.01 0.01 49 1021.0
20240303044510 47 154 0.0 1.0 0.00 0.01 0.01 48 1021.2
20240303043004 47 155 0.0 0.0 0.00 0.01 0.01 48 1021.0
20240303041503 48 155 0.0 0.0 0.00 0.01 0.01 48 1021.3
20240303040007 48 155 0.0 0.0 0.00 0.05 0.01 47 1021.1
20240303034503 49 153 0.0 0.0 0.00 0.05 0.01 47 1021.2
20240303033003 50 151 0.0 0.0 0.00 0.05 0.01 48 1021.0
20240303031503 50 151 0.0 0.0 0.00 0.05 0.01 48 1021.0
20240303030001 51 151 0.0 0.0 0.00 0.08 0.01 48 1021.0
20240303024509 51 151 0.0 1.0 0.00 0.08 0.01 48 1020.7
20240303023005 50 159 0.0 2.0 0.00 0.08 0.01 44 1020.7
20240303021505 51 160 0.0 2.0 0.00 0.08 0.01 44 1020.7
20240303020004 51 160 0.0 1.0 0.00 0.10 0.01 45 1020.6
20240303014501 52 165 0.0 0.0 0.00 0.10 0.01 45 1020.2
20240303013002 52 166 0.0 1.0 0.00 0.10 0.01 47 1020.0
20240303011601 53 165 0.0 1.0 0.00 0.10 0.01 47 1019.9
20240303010100 54 165 0.0 0.0 0.00 0.11 0.01 47 1019.9
20240303004603 55 165 0.0 0.0 0.00 0.11 0.01 47 1019.8
20240303003100 55 166 0.0 1.0 0.00 0.11 0.01 46 1019.6
20240303001606 57 170 0.0 1.0 0.00 0.11 0.01 45 1019.4
20240303000058 57 167 0.0 0.0 0.00 0.27 0.01 44 1019.2
20240302234508 60 163 0.0 0.0 0.00 0.27 0.01 38 1019.2
20240302233008 62 164 0.0 0.0 0.00 0.27 0.01 37 1019.2
20240302231508 64 157 0.0 0.0 0.00 0.27 0.01 32 1019.0
20240302230014 67 130 0.0 2.0 0.00 0.53 0.01 27 1019.1
20240302224520 68 121 0.0 2.0 0.00 0.53 0.01 25 1019.1
20240302223021 68 195 0.0 5.0 0.00 0.53 0.01 26 1019.1
20240302221535 67 198 3.0 6.0 0.00 0.53 0.01 26 1019.2
20240302220027 67 202 5.0 8.0 0.00 0.79 0.01 25 1019.3
20240302214601 67 162 4.0 9.0 0.00 0.79 0.01 26 1019.2
20240302213058 68 192 1.0 7.0 0.00 0.79 0.01 24 1019.0
20240302211558 68 266 2.0 5.0 0.00 0.79 0.01 22 1019.1
20240302210052 67 140 0.0 4.0 0.00 1.02 0.01 25 1019.1
20240302204604 66 241 2.0 7.0 0.00 1.02 0.01 26 1019.3
20240302203055 64 248 2.0 10.0 0.00 1.02 0.01 27 1019.6
20240302201601 66 161 2.0 5.0 0.00 1.02 0.01 27 1019.5
20240302200059 66 249 3.0 8.0 0.00 1.18 0.01 25 1019.6
20240302194548 64 240 1.0 3.0 0.00 1.18 0.01 28 1019.9
20240302193041 63 202 4.0 8.0 0.00 1.18 0.01 29 1019.9
20240302191539 63 301 1.0 3.0 0.00 1.18 0.01 28 1020.1
20240302190037 63 121 1.0 4.0 0.00 1.24 0.01 30 1020.6
20240302184508 61 196 1.0 7.0 0.00 1.24 0.01 32 1020.8
20240302183006 61 215 1.0 4.0 0.00 1.24 0.01 31 1021.0
20240302181507 59 261 3.0 8.0 0.00 1.24 0.01 32 1021.1
20240302180001 60 136 0.0 3.0 0.00 1.28 0.01 30 1021.4
20240302174541 59 343 0.0 2.0 0.00 1.28 0.01 32 1021.6
20240302173046 58 69 1.0 4.0 0.00 1.28 0.01 34 1021.8
20240302171538 57 55 1.0 4.0 0.00 1.28 0.01 36 1021.8
20240302170034 56 65 2.0 4.0 0.00 1.28 0.01 36 1022.3
20240302164539 56 326 1.0 4.0 0.00 1.28 0.01 35 1022.5
20240302163034 56 111 0.0 4.0 0.00 1.28 0.01 36 1022.7
20240302161531 54 11 0.0 4.0 0.00 1.28 0.01 37 1022.5
20240302160035 54 109 1.0 4.0 0.00 1.28 0.01 40 1022.8
20240302154516 52 355 0.0 4.0 0.00 1.28 0.01 41 1022.6
20240302153023 52 90 2.0 6.0 0.00 1.28 0.01 43 1022.9
20240302151506 50 349 3.0 7.0 0.00 1.28 0.01 44 1022.8
20240302150004 50 53 2.0 6.0 0.00 1.31 0.01 45 1022.8
20240302144537 49 86 4.0 9.0 0.00 1.31 0.01 46 1022.6
20240302143034 49 84 2.0 5.0 0.00 1.31 0.01 46 1022.7
20240302141531 49 342 1.0 5.0 0.00 1.31 0.01 48 1022.8
20240302140029 47 34 3.0 7.0 0.00 1.31 0.01 48 1022.7
20240302134515 47 75 3.0 7.0 0.00 1.31 0.01 48 1022.9
20240302133108 47 46 1.0 5.0 0.00 1.31 0.01 49 1023.2
20240302131507 46 27 2.0 5.0 0.00 1.31 0.01 49 1023.0
20240302130006 46 355 0.0 2.0 0.00 1.31 0.01 49 1023.0
20240302124548 45 254 0.0 2.0 0.00 1.31 0.01 49 1023.0
20240302123045 45 251 0.0 2.0 0.00 1.31 0.01 49 1023.1
20240302121600 45 251 0.0 3.0 0.00 1.31 0.01 48 1022.9
20240302120041 45 252 1.0 4.0 0.00 1.31 0.01 48 1023.0